Time;durP1;ratioP1;P1;durP2;ratioP2;P2;SDS_P1;SDS_P2;PMS_P1;PMS_P2;Temp;Humidity;BMP_temperature;BMP_pressure;BME280_temperature;BME280_humidity;BME280_pressure;Samples;Min_cycle;Max_cycle;Signal;HPM_P1;HPM_P2
2021/05/03 00:00:41;;;;;;;5.47;2.90;;;7.70;99.90;;;;;;1883360;74;21165;-69
2021/05/03 00:03:09;;;;;;;6.08;2.55;;;7.70;99.90;;;;;;1899565;74;21160;-69
2021/05/03 00:05:37;;;;;;;6.80;2.83;;;7.60;99.90;;;;;;1871327;76;21471;-69
2021/05/03 00:08:04;;;;;;;8.28;2.77;;;7.50;99.90;;;;;;1899766;74;21105;-69
2021/05/03 00:10:32;;;;;;;6.28;2.77;;;7.50;99.90;;;;;;1885637;74;21131;-69
2021/05/03 00:12:59;;;;;;;5.55;3.35;;;7.60;99.90;;;;;;1889514;74;21126;-68
2021/05/03 00:15:27;;;;;;;6.33;3.33;;;7.50;99.90;;;;;;1884814;74;21616;-69
2021/05/03 00:17:54;;;;;;;7.95;3.12;;;7.60;99.90;;;;;;1895707;74;21130;-68
2021/05/03 00:20:22;;;;;;;8.70;3.52;;;7.60;99.90;;;;;;1899568;73;21980;-69
2021/05/03 00:22:49;;;;;;;6.12;3.33;;;7.50;99.90;;;;;;1885528;74;21233;-68
2021/05/03 00:25:17;;;;;;;9.00;4.28;;;7.50;99.90;;;;;;1870141;75;21221;-69
2021/05/03 00:27:44;;;;;;;6.40;3.17;;;7.70;99.90;;;;;;1902768;74;21105;-69
2021/05/03 00:30:13;;;;;;;5.80;3.15;;;7.60;99.90;;;;;;1919511;73;21136;-69
2021/05/03 00:32:40;;;;;;;5.45;2.98;;;7.60;99.90;;;;;;1918277;73;21659;-69
2021/05/03 00:35:08;;;;;;;5.10;3.20;;;7.50;99.90;;;;;;1918115;73;22552;-69
2021/05/03 00:37:36;;;;;;;7.72;3.00;;;7.50;99.90;;;;;;1893990;75;21608;-69
2021/05/03 00:40:05;;;;;;;7.37;3.17;;;7.40;99.90;;;;;;1871548;75;21126;-69
2021/05/03 00:42:33;;;;;;;6.45;2.83;;;7.40;99.90;;;;;;1900634;73;21545;-69
2021/05/03 00:45:12;;;;;;;10.08;3.37;;;7.40;99.90;;;;;;1905225;73;21084;-69
2021/05/03 00:47:41;;;;;;;6.60;2.83;;;7.50;99.90;;;;;;1905748;73;21037;-70
2021/05/03 00:50:10;;;;;;;7.40;2.90;;;7.40;99.90;;;;;;1902393;73;21148;-69
2021/05/03 00:52:38;;;;;;;7.08;3.12;;;7.40;99.90;;;;;;1885414;74;21128;-69
2021/05/03 00:55:06;;;;;;;6.25;3.20;;;7.40;99.90;;;;;;1885914;74;21710;-69
2021/05/03 00:57:34;;;;;;;8.73;3.42;;;7.40;99.90;;;;;;1888481;74;21191;-69
2021/05/03 01:00:01;;;;;;;7.05;3.17;;;7.40;99.90;;;;;;1919924;73;21663;-69
2021/05/03 01:02:29;;;;;;;6.97;3.10;;;7.40;99.90;;;;;;1884843;74;21121;-68
2021/05/03 01:04:56;;;;;;;5.15;3.20;;;7.40;99.90;;;;;;1888878;74;21199;-69
2021/05/03 01:07:24;;;;;;;7.17;2.80;;;7.40;99.90;;;;;;1899588;74;21195;-70
2021/05/03 01:09:51;;;;;;;4.83;2.90;;;7.50;99.90;;;;;;1901328;74;21116;-69
2021/05/03 01:12:19;;;;;;;6.08;2.80;;;7.40;99.90;;;;;;1904996;74;21086;-69
2021/05/03 01:14:46;;;;;;;5.92;3.05;;;7.40;99.90;;;;;;1887855;74;21536;-69
2021/05/03 01:17:14;;;;;;;4.85;2.90;;;7.40;99.90;;;;;;1894864;75;21062;-68
2021/05/03 01:19:41;;;;;;;4.42;2.47;;;7.40;99.90;;;;;;1885580;74;21563;-68
2021/05/03 01:22:09;;;;;;;6.65;2.90;;;7.50;99.90;;;;;;1886717;74;21666;-69
2021/05/03 01:24:36;;;;;;;5.62;3.20;;;7.50;99.90;;;;;;1918894;73;21202;-69
2021/05/03 01:27:04;;;;;;;9.30;3.50;;;7.50;99.90;;;;;;1882185;74;21125;-69
2021/05/03 01:29:31;;;;;;;6.10;3.00;;;7.40;99.90;;;;;;1886059;74;21165;-68
2021/05/03 01:31:59;;;;;;;7.47;3.17;;;7.40;99.90;;;;;;1894661;75;21183;-69
2021/05/03 01:34:26;;;;;;;5.58;2.90;;;7.50;99.90;;;;;;1898800;75;21139;-70
2021/05/03 01:36:54;;;;;;;5.12;2.95;;;7.50;99.90;;;;;;1869904;75;21562;-69
2021/05/03 01:39:21;;;;;;;9.73;3.40;;;7.50;99.90;;;;;;1896547;74;21116;-69
2021/05/03 01:41:49;;;;;;;7.90;2.80;;;7.50;99.90;;;;;;1898875;74;21175;-68
2021/05/03 01:44:16;;;;;;;7.58;2.50;;;7.40;99.90;;;;;;1902287;74;21106;-68
2021/05/03 01:46:44;;;;;;;4.78;2.92;;;7.30;99.90;;;;;;1873181;75;21662;-69
2021/05/03 01:49:12;;;;;;;7.28;3.10;;;7.30;99.90;;;;;;1885407;74;21215;-68
2021/05/03 01:51:40;;;;;;;5.40;2.98;;;7.30;99.90;;;;;;1886107;74;21106;-69
2021/05/03 01:54:08;;;;;;;5.72;3.15;;;7.40;99.90;;;;;;1921389;73;21565;-68
2021/05/03 01:56:36;;;;;;;4.22;3.20;;;7.30;99.90;;;;;;1915652;73;21191;-69
2021/05/03 01:59:05;;;;;;;7.50;3.22;;;7.30;99.90;;;;;;1917326;73;21704;-69
2021/05/03 02:01:34;;;;;;;5.35;2.98;;;7.30;99.90;;;;;;1886446;74;21160;-69
2021/05/03 02:04:02;;;;;;;7.35;2.98;;;7.30;99.90;;;;;;1895563;75;21097;-69
2021/05/03 02:06:30;;;;;;;6.67;3.50;;;7.30;99.90;;;;;;1884891;74;21149;-69
2021/05/03 02:08:58;;;;;;;6.55;3.62;;;7.20;99.90;;;;;;1886235;75;21445;-69
2021/05/03 02:11:25;;;;;;;9.55;3.65;;;7.20;99.90;;;;;;1886258;74;21212;-69
2021/05/03 02:13:53;;;;;;;6.17;3.45;;;7.20;99.90;;;;;;1898986;74;21036;-69
2021/05/03 02:16:20;;;;;;;6.78;3.47;;;7.10;99.90;;;;;;1884613;74;21123;-69
2021/05/03 02:18:48;;;;;;;7.85;4.20;;;7.20;99.90;;;;;;1887748;74;21727;-69
2021/05/03 02:21:15;;;;;;;8.90;3.62;;;7.30;99.90;;;;;;1886637;74;21149;-68
2021/05/03 02:23:43;;;;;;;7.35;4.17;;;7.30;99.90;;;;;;1885948;74;21122;-68
2021/05/03 02:26:10;;;;;;;7.47;4.25;;;7.30;99.90;;;;;;1894000;74;21079;-68
2021/05/03 02:28:38;;;;;;;4.65;3.90;;;7.30;99.90;;;;;;1924276;73;21638;-69
2021/05/03 02:31:05;;;;;;;7.45;4.40;;;7.30;99.90;;;;;;1925981;73;21145;-69
2021/05/03 02:33:33;;;;;;;7.85;4.40;;;7.30;99.90;;;;;;1896515;74;21120;-69
2021/05/03 02:36:01;;;;;;;9.80;4.80;;;7.30;99.90;;;;;;1894273;74;21154;-68
2021/05/03 02:38:30;;;;;;;9.00;4.55;;;7.30;99.90;;;;;;1874644;75;21226;-68
2021/05/03 02:40:58;;;;;;;6.92;4.60;;;7.20;99.90;;;;;;1917648;73;21222;-68
2021/05/03 02:43:25;;;;;;;7.17;4.50;;;7.20;99.90;;;;;;1891668;75;21081;-69
2021/05/03 02:45:53;;;;;;;12.00;5.03;;;7.30;99.90;;;;;;1885897;74;21521;-69
2021/05/03 02:48:21;;;;;;;10.15;4.80;;;7.30;99.90;;;;;;1870021;75;21168;-69
2021/05/03 02:50:48;;;;;;;9.28;4.85;;;7.30;99.90;;;;;;1896402;74;21178;-69
2021/05/03 02:53:15;;;;;;;9.25;5.17;;;7.40;99.90;;;;;;1897751;74;21123;-69
2021/05/03 02:55:43;;;;;;;9.60;5.25;;;7.30;99.90;;;;;;1895185;74;21177;-69
2021/05/03 02:58:10;;;;;;;7.55;5.17;;;7.30;99.90;;;;;;1897271;74;21604;-69
2021/05/03 03:00:38;;;;;;;10.50;4.65;;;7.20;99.90;;;;;;1872701;75;21193;-69
2021/05/03 03:03:06;;;;;;;10.65;5.10;;;7.10;99.90;;;;;;1885484;74;21121;-68
2021/05/03 03:05:33;;;;;;;8.20;5.15;;;7.20;99.90;;;;;;1887926;75;21562;-69
2021/05/03 03:08:02;;;;;;;8.58;5.50;;;7.30;99.90;;;;;;1886422;74;22139;-68
2021/05/03 03:10:30;;;;;;;6.72;4.53;;;7.30;99.90;;;;;;1886136;74;21167;-69
2021/05/03 03:13:01;;;;;;;9.58;5.67;;;7.30;99.90;;;;;;1887352;74;21638;-69
2021/05/03 03:15:31;;;;;;;10.32;5.17;;;7.30;99.90;;;;;;1901347;74;21112;-69
2021/05/03 03:17:58;;;;;;;7.28;5.03;;;7.20;99.90;;;;;;1897309;74;21698;-69
2021/05/03 03:20:26;;;;;;;10.35;5.28;;;7.20;99.90;;;;;;1886967;73;21138;-69
2021/05/03 03:22:53;;;;;;;11.10;5.05;;;7.20;99.90;;;;;;1920238;73;21367;-69
2021/05/03 03:25:21;;;;;;;10.18;5.47;;;7.30;99.90;;;;;;1887206;74;21191;-69
2021/05/03 03:27:48;;;;;;;6.60;4.75;;;7.30;99.90;;;;;;1903540;74;21140;-69
2021/05/03 03:30:18;;;;;;;7.90;5.10;;;7.20;99.90;;;;;;1888275;74;21126;-73
2021/05/03 03:32:46;;;;;;;7.60;5.22;;;7.20;99.90;;;;;;1888158;74;21106;-69
2021/05/03 03:35:16;;;;;;;8.68;5.40;;;7.20;99.90;;;;;;1895662;74;21113;-69
2021/05/03 03:37:45;;;;;;;8.15;4.90;;;7.30;99.90;;;;;;1899037;74;21148;-69
2021/05/03 03:40:14;;;;;;;14.28;5.45;;;7.20;99.90;;;;;;1894938;74;21166;-69
2021/05/03 03:42:42;;;;;;;9.35;5.70;;;7.10;99.90;;;;;;1899708;74;21743;-69
2021/05/03 03:45:11;;;;;;;9.63;5.47;;;7.10;99.90;;;;;;1899644;74;21222;-69
2021/05/03 03:47:38;;;;;;;7.45;5.80;;;7.10;99.90;;;;;;1873090;75;21102;-68
2021/05/03 03:50:07;;;;;;;11.88;5.70;;;7.00;99.90;;;;;;1873522;75;21187;-68
2021/05/03 03:52:35;;;;;;;9.58;5.65;;;7.00;99.90;;;;;;1873124;75;21148;-69
2021/05/03 03:55:03;;;;;;;13.03;6.00;;;7.00;99.90;;;;;;1883331;74;21083;-69
2021/05/03 03:57:31;;;;;;;10.20;5.50;;;6.90;99.90;;;;;;1884266;74;21596;-69
2021/05/03 03:59:59;;;;;;;9.28;5.33;;;6.90;99.90;;;;;;1888089;74;22163;-69
2021/05/03 04:02:29;;;;;;;14.45;5.70;;;6.90;99.90;;;;;;1897903;74;21152;-69
2021/05/03 04:07:42;;;;;;;7.33;5.72;;;6.80;99.90;;;;;;1906940;73;22308;-68
2021/05/03 04:13:08;;;;;;;15.30;6.60;;;6.90;99.90;;;;;;1905159;73;21205;-68
2021/05/03 04:26:15;;;;;;;11.60;6.00;;;6.60;99.90;;;;;;1902527;73;21104;-68
2021/05/03 04:28:44;;;;;;;13.15;6.58;;;6.60;99.90;;;;;;1905163;73;21061;-69
2021/05/03 04:31:12;;;;;;;14.63;6.62;;;6.60;99.90;;;;;;1908034;73;21070;-70
2021/05/03 04:33:39;;;;;;;9.55;6.62;;;6.60;99.90;;;;;;1908724;73;21093;-70
2021/05/03 04:36:07;;;;;;;8.68;6.10;;;6.60;99.90;;;;;;1906998;73;21079;-70
2021/05/03 04:38:35;;;;;;;13.78;7.03;;;6.50;99.90;;;;;;1903944;73;21040;-70
2021/05/03 04:41:03;;;;;;;11.60;6.35;;;6.60;99.90;;;;;;1905541;74;21017;-70
2021/05/03 04:43:31;;;;;;;11.35;6.20;;;6.60;99.90;;;;;;1907802;73;21029;-70
2021/05/03 04:45:58;;;;;;;11.75;6.78;;;6.70;99.90;;;;;;1907051;73;21118;-69
2021/05/03 04:48:27;;;;;;;13.10;6.72;;;6.70;99.90;;;;;;1902505;73;21068;-69
2021/05/03 04:50:58;;;;;;;8.78;5.65;;;6.70;99.90;;;;;;1905227;73;21063;-69
2021/05/03 04:53:26;;;;;;;8.80;6.37;;;6.80;99.90;;;;;;1911629;73;21115;-69
2021/05/03 04:55:53;;;;;;;14.33;6.90;;;6.80;99.90;;;;;;1905614;73;21036;-69
2021/05/03 04:58:21;;;;;;;9.58;6.25;;;6.70;99.90;;;;;;1908004;73;21386;-69
2021/05/03 05:00:48;;;;;;;12.30;6.67;;;6.70;99.90;;;;;;1906465;73;21135;-70
2021/05/03 05:03:16;;;;;;;9.90;6.40;;;6.80;99.90;;;;;;1904044;73;21117;-69
2021/05/03 05:05:46;;;;;;;8.25;6.53;;;6.80;99.90;;;;;;1902322;74;21157;-71
2021/05/03 05:08:13;;;;;;;7.72;6.33;;;6.90;99.90;;;;;;1905841;73;21654;-70
2021/05/03 05:10:40;;;;;;;12.20;6.65;;;6.80;99.90;;;;;;1912373;73;21155;-71
2021/05/03 05:13:08;;;;;;;8.30;6.10;;;6.90;99.90;;;;;;1898450;73;21115;-71
2021/05/03 05:15:35;;;;;;;13.30;6.55;;;6.90;99.90;;;;;;1906704;73;21597;-71
2021/05/03 05:18:03;;;;;;;13.70;6.30;;;6.90;99.90;;;;;;1904984;73;21355;-70
2021/05/03 05:20:31;;;;;;;8.15;5.92;;;7.10;99.90;;;;;;1904031;73;21059;-70
2021/05/03 05:22:58;;;;;;;9.35;6.45;;;7.20;99.90;;;;;;1901530;73;21038;-70
2021/05/03 05:25:26;;;;;;;10.00;5.70;;;7.10;99.90;;;;;;1908445;74;21067;-70
2021/05/03 05:27:53;;;;;;;12.68;6.37;;;7.20;99.90;;;;;;1903736;73;21121;-72
2021/05/03 05:30:21;;;;;;;17.70;5.80;;;7.20;99.90;;;;;;1892929;72;21171;-77
2021/05/03 05:32:49;;;;;;;8.20;5.65;;;7.20;99.90;;;;;;1848274;76;21248;-78
2021/05/03 05:35:16;;;;;;;16.67;10.80;;;7.30;99.90;;;;;;1850010;76;21172;-79
2021/05/03 05:37:43;;;;;;;12.90;5.55;;;7.40;99.90;;;;;;1847594;76;21094;-78
2021/05/03 05:40:11;;;;;;;11.25;5.35;;;7.50;99.90;;;;;;1840518;76;21547;-78
2021/05/03 05:42:39;;;;;;;9.70;5.10;;;7.60;99.90;;;;;;1871002;75;21598;-77
2021/05/03 05:45:07;;;;;;;8.80;5.30;;;7.70;99.90;;;;;;1870939;76;21141;-74
2021/05/03 05:47:35;;;;;;;10.20;5.55;;;7.70;99.90;;;;;;1870664;76;21082;-75
2021/05/03 05:50:03;;;;;;;10.70;5.30;;;7.80;99.90;;;;;;1871529;76;21684;-76
2021/05/03 05:52:30;;;;;;;8.13;4.65;;;7.80;99.90;;;;;;1869407;75;21149;-75
2021/05/03 05:54:58;;;;;;;8.35;5.25;;;7.90;99.90;;;;;;1872066;76;21093;-75
2021/05/03 05:57:25;;;;;;;9.00;5.33;;;7.90;99.90;;;;;;1870768;76;21528;-75
2021/05/03 05:59:52;;;;;;;9.73;4.65;;;8.10;99.90;;;;;;1870525;76;21124;-77
2021/05/03 06:02:20;;;;;;;7.75;4.80;;;8.10;99.90;;;;;;1867885;75;21119;-77
2021/05/03 06:04:47;;;;;;;5.70;4.92;;;8.10;99.90;;;;;;1868355;75;21085;-76
2021/05/03 06:07:15;;;;;;;7.97;5.28;;;8.10;99.90;;;;;;1865523;76;21551;-76
2021/05/03 06:09:43;;;;;;;11.78;5.58;;;8.10;99.90;;;;;;1867839;76;21716;-76
2021/05/03 06:12:10;;;;;;;11.08;5.15;;;8.20;99.90;;;;;;1868351;75;21105;-74
2021/05/03 06:14:38;;;;;;;10.48;5.05;;;8.20;99.90;;;;;;1867670;75;21455;-77
2021/05/03 06:17:05;;;;;;;7.72;5.20;;;8.20;99.90;;;;;;1871797;76;21138;-78
2021/05/03 06:19:33;;;;;;;6.62;4.97;;;8.20;99.90;;;;;;1872029;75;21163;-78
2021/05/03 06:22:00;;;;;;;22.00;6.17;;;8.20;99.90;;;;;;1867271;76;21070;-77
2021/05/03 06:24:28;;;;;;;7.75;5.33;;;8.20;99.90;;;;;;1871712;75;21125;-79
2021/05/03 06:26:55;;;;;;;10.08;5.62;;;8.10;99.90;;;;;;1876488;74;21218;-76
2021/05/03 06:29:23;;;;;;;12.28;6.28;;;8.20;99.90;;;;;;1869243;76;21116;-76
2021/05/03 06:31:52;;;;;;;12.88;5.62;;;8.10;99.90;;;;;;1870696;75;21094;-78
2021/05/03 06:34:19;;;;;;;9.10;5.37;;;8.00;99.90;;;;;;1869784;75;21097;-78
2021/05/03 06:36:47;;;;;;;13.15;6.65;;;8.00;99.90;;;;;;1865034;75;21622;-78
2021/05/03 06:39:16;;;;;;;11.25;6.17;;;8.00;99.90;;;;;;1870448;76;21559;-79
2021/05/03 06:41:45;;;;;;;8.05;6.03;;;8.00;99.90;;;;;;1873531;76;21116;-77
2021/05/03 06:44:13;;;;;;;17.32;6.78;;;7.90;99.90;;;;;;1869314;76;21241;-78
2021/05/03 06:46:40;;;;;;;8.98;6.30;;;7.90;99.90;;;;;;1871578;75;21122;-77
2021/05/03 06:49:08;;;;;;;7.28;5.55;;;8.00;99.90;;;;;;1863905;75;21101;-77
2021/05/03 06:51:35;;;;;;;8.93;5.95;;;7.90;99.90;;;;;;1868055;75;21126;-77
2021/05/03 06:54:03;;;;;;;10.20;6.12;;;7.90;99.90;;;;;;1869615;75;21539;-77
2021/05/03 06:56:30;;;;;;;10.60;6.67;;;8.00;99.90;;;;;;1867149;74;21582;-80
2021/05/03 06:58:58;;;;;;;9.30;5.50;;;8.00;99.90;;;;;;1925592;72;21121;-80
2021/05/03 07:01:25;;;;;;;8.05;6.17;;;7.90;99.90;;;;;;1923746;72;21104;-78
2021/05/03 07:03:53;;;;;;;7.28;5.83;;;7.80;99.90;;;;;;1936866;72;21209;-76
2021/05/03 07:06:20;;;;;;;11.45;5.92;;;7.80;99.90;;;;;;1934923;72;21137;-79
2021/05/03 07:08:48;;;;;;;8.43;5.65;;;7.70;99.90;;;;;;1928861;72;21532;-76
2021/05/03 07:11:19;;;;;;;9.83;6.03;;;7.70;99.90;;;;;;1928574;74;21126;-76
2021/05/03 07:13:45;;;;;;;8.33;5.03;;;7.80;99.90;;;;;;1930210;72;21647;-79
2021/05/03 07:16:12;;;;;;;6.25;5.28;;;7.80;99.90;;;;;;1931475;73;21119;-76
2021/05/03 07:18:40;;;;;;;9.83;5.05;;;7.90;99.90;;;;;;1930496;72;21068;-77
2021/05/03 07:21:08;;;;;;;9.15;5.40;;;7.80;99.90;;;;;;1929706;72;21091;-79
2021/05/03 07:23:35;;;;;;;6.90;5.00;;;7.80;99.90;;;;;;1925384;73;21569;-78
2021/05/03 07:26:05;;;;;;;9.13;5.90;;;7.70;99.90;;;;;;1929569;73;21081;-79
2021/05/03 07:28:32;;;;;;;9.28;6.22;;;7.60;99.90;;;;;;1929829;73;21036;-76
2021/05/03 07:31:01;;;;;;;9.53;6.78;;;7.50;99.90;;;;;;1924786;73;21174;-76
2021/05/03 07:33:29;;;;;;;7.22;6.45;;;7.50;99.90;;;;;;1927342;74;21092;-78
2021/05/03 07:35:56;;;;;;;7.15;5.60;;;7.60;99.90;;;;;;1926071;74;21514;-76
2021/05/03 07:38:24;;;;;;;6.30;4.97;;;7.60;99.90;;;;;;1926762;72;21102;-77
2021/05/03 07:40:52;;;;;;;8.88;5.45;;;7.60;99.90;;;;;;1924937;73;21208;-78
2021/05/03 07:43:21;;;;;;;7.03;5.08;;;7.50;99.90;;;;;;1923253;72;22109;-78
2021/05/03 07:45:49;;;;;;;8.03;4.62;;;7.60;99.90;;;;;;1921443;73;21162;-77
2021/05/03 07:48:16;;;;;;;9.60;5.33;;;7.60;99.90;;;;;;1933966;72;22445;-77
2021/05/03 07:50:44;;;;;;;8.05;5.67;;;7.60;99.90;;;;;;1926828;72;21095;-78
2021/05/03 07:53:12;;;;;;;8.20;5.80;;;7.70;99.90;;;;;;1932669;72;21119;-79
2021/05/03 07:55:39;;;;;;;8.43;6.33;;;7.70;99.90;;;;;;1933324;72;21041;-80
2021/05/03 07:58:07;;;;;;;7.37;6.10;;;7.80;99.90;;;;;;1931099;72;21149;-78
2021/05/03 08:00:34;;;;;;;7.72;6.55;;;7.80;99.90;;;;;;1933312;72;21197;-77
2021/05/03 08:03:02;;;;;;;8.30;6.50;;;7.70;99.90;;;;;;1925567;72;21091;-78
2021/05/03 08:05:29;;;;;;;11.53;6.97;;;7.70;99.90;;;;;;1933704;73;21126;-78
2021/05/03 08:07:57;;;;;;;13.25;6.42;;;7.70;99.90;;;;;;1933477;73;21083;-76
2021/05/03 08:10:25;;;;;;;8.30;6.58;;;7.70;99.90;;;;;;1925052;74;21158;-78
2021/05/03 08:12:52;;;;;;;14.50;7.37;;;7.80;99.90;;;;;;1928785;72;21091;-77
2021/05/03 08:15:22;;;;;;;8.98;6.42;;;7.80;99.90;;;;;;1927249;73;21567;-78
2021/05/03 08:17:49;;;;;;;8.35;6.75;;;7.90;99.90;;;;;;1926760;74;21099;-78
2021/05/03 08:20:18;;;;;;;9.70;7.10;;;7.80;99.90;;;;;;1933982;72;21735;-79
2021/05/03 08:22:47;;;;;;;14.70;7.00;;;7.90;99.90;;;;;;1932504;72;21095;-77
2021/05/03 08:25:15;;;;;;;12.03;7.12;;;7.80;99.90;;;;;;1924727;72;21168;-78
2021/05/03 08:27:42;;;;;;;13.68;8.00;;;7.90;99.90;;;;;;1931952;74;20994;-80
2021/05/03 08:30:10;;;;;;;11.68;7.47;;;7.90;99.90;;;;;;1934448;74;21057;-77
2021/05/03 08:32:38;;;;;;;13.30;7.87;;;7.90;99.90;;;;;;1930597;72;21173;-77
2021/05/03 08:35:06;;;;;;;16.90;8.48;;;7.90;99.90;;;;;;1926427;74;21143;-77
2021/05/03 08:37:34;;;;;;;9.63;7.90;;;8.10;99.90;;;;;;1932401;72;21087;-78
2021/05/03 08:40:01;;;;;;;11.73;8.40;;;8.20;99.90;;;;;;1931022;72;21099;-77
2021/05/03 08:42:29;;;;;;;12.15;8.73;;;8.00;99.90;;;;;;1928352;72;21142;-78
2021/05/03 08:44:57;;;;;;;12.35;8.90;;;7.90;99.90;;;;;;1926755;72;21121;-77
2021/05/03 08:47:31;;;;;;;14.70;8.63;;;7.90;99.90;;;;;;1931510;72;21032;-79
2021/05/03 08:49:57;;;;;;;11.45;8.53;;;7.90;99.90;;;;;;1920142;74;21143;-79
2021/05/03 08:52:29;;;;;;;11.68;8.68;;;7.80;99.90;;;;;;1930980;72;21111;-78
2021/05/03 08:54:54;;;;;;;11.15;8.38;;;7.90;99.90;;;;;;1924008;74;21359;-77
2021/05/03 08:57:22;;;;;;;14.40;9.60;;;7.90;99.90;;;;;;1936576;72;21677;-78
2021/05/03 08:59:49;;;;;;;12.58;9.05;;;7.90;99.90;;;;;;1924321;74;21135;-77
2021/05/03 09:02:18;;;;;;;13.45;9.08;;;8.00;99.90;;;;;;1923499;74;21052;-79
2021/05/03 09:04:45;;;;;;;11.05;8.98;;;8.00;99.90;;;;;;1922640;74;21086;-78
2021/05/03 09:07:15;;;;;;;11.28;8.60;;;8.00;99.90;;;;;;1929166;72;21184;-77
2021/05/03 09:09:45;;;;;;;13.35;8.90;;;8.00;99.90;;;;;;1929192;72;21185;-77
2021/05/03 09:12:18;;;;;;;13.83;9.35;;;8.10;99.90;;;;;;1927130;72;21158;-78
2021/05/03 09:14:55;;;;;;;12.33;9.63;;;8.10;99.90;;;;;;1933963;72;21049;-77
2021/05/03 09:17:27;;;;;;;11.03;9.18;;;8.00;99.90;;;;;;1928770;74;21205;-78
2021/05/03 09:19:59;;;;;;;14.87;9.75;;;8.10;99.90;;;;;;1924465;72;21208;-77
2021/05/03 09:22:52;;;;;;;11.88;9.43;;;8.10;99.90;;;;;;1925986;72;21161;-79
2021/05/03 09:25:27;;;;;;;10.28;9.00;;;8.00;99.90;;;;;;1925395;74;21087;-77
2021/05/03 09:28:09;;;;;;;12.80;9.20;;;8.10;99.90;;;;;;1930419;73;21068;-79
2021/05/03 09:30:45;;;;;;;12.70;9.10;;;8.00;99.90;;;;;;1924763;72;21131;-78
2021/05/03 09:33:25;;;;;;;15.93;8.90;;;8.00;99.90;;;;;;1924366;72;21150;-76
2021/05/03 09:35:58;;;;;;;10.35;8.80;;;7.90;99.90;;;;;;1931273;73;21126;-77
2021/05/03 09:38:32;;;;;;;13.03;10.00;;;8.00;99.90;;;;;;1935839;72;21071;-78
2021/05/03 09:41:14;;;;;;;16.20;11.00;;;8.20;99.90;;;;;;1925873;72;21174;-77
2021/05/03 09:43:42;;;;;;;;;;;8.30;99.90;;;;;;1930165;72;21074;-78
2021/05/03 09:46:36;;;;;;;14.47;11.83;;;8.30;99.90;;;;;;1927880;74;20173;-78
2021/05/03 09:49:17;;;;;;;15.32;11.83;;;8.20;99.90;;;;;;1928447;74;21139;-78
2021/05/03 09:51:53;;;;;;;16.12;12.35;;;8.20;99.90;;;;;;1932315;72;21071;-78
2021/05/03 09:54:34;;;;;;;16.48;12.90;;;8.20;99.90;;;;;;1925690;72;21087;-77
2021/05/03 09:57:10;;;;;;;13.35;11.95;;;8.40;99.90;;;;;;1932813;72;21105;-77
2021/05/03 09:59:52;;;;;;;18.15;13.95;;;8.30;99.90;;;;;;1929685;72;21137;-77
2021/05/03 10:02:29;;;;;;;19.10;15.10;;;8.40;99.90;;;;;;1925321;74;21060;-76
2021/05/03 10:05:18;;;;;;;19.55;14.20;;;8.40;99.90;;;;;;1925241;72;21084;-76
2021/05/03 10:07:51;;;;;;;18.55;15.68;;;8.50;99.90;;;;;;1923183;72;21070;-77
2021/05/03 10:10:17;;;;;;;23.92;18.95;;;8.60;99.90;;;;;;1924370;74;21203;-76
2021/05/03 10:12:43;;;;;;;22.93;19.98;;;8.50;99.90;;;;;;1928571;72;21135;-75
2021/05/03 10:15:13;;;;;;;24.70;20.60;;;8.60;99.90;;;;;;1923421;74;21138;-74
2021/05/03 10:17:43;;;;;;;24.65;21.17;;;8.70;99.90;;;;;;1923734;72;21082;-75
2021/05/03 10:20:13;;;;;;;24.63;20.52;;;8.80;99.90;;;;;;1929285;74;21128;-73
2021/05/03 10:22:40;;;;;;;31.70;24.43;;;8.80;99.90;;;;;;1934456;72;21126;-73
2021/05/03 10:25:13;;;;;;;28.87;23.50;;;9.00;99.90;;;;;;1925466;72;21176;-75
2021/05/03 10:27:43;;;;;;;26.82;23.00;;;9.10;99.90;;;;;;1927557;72;21083;-74
2021/05/03 10:30:22;;;;;;;31.20;23.47;;;9.10;99.90;;;;;;1921644;74;21114;-74
2021/05/03 10:32:59;;;;;;;29.10;25.10;;;9.10;99.90;;;;;;1922289;72;21115;-73
2021/05/03 10:35:34;;;;;;;31.10;24.95;;;9.00;99.90;;;;;;1925724;72;21099;-74
2021/05/03 10:38:03;;;;;;;28.45;24.02;;;9.00;99.90;;;;;;1927868;72;21609;-74
2021/05/03 10:40:36;;;;;;;26.10;23.05;;;9.00;99.90;;;;;;1931208;72;21730;-74
2021/05/03 10:43:09;;;;;;;30.05;23.22;;;9.10;99.90;;;;;;1931466;72;21071;-74
2021/05/03 10:46:05;;;;;;;;;;;9.00;99.90;;;;;;1927082;74;21077;-74
2021/05/03 10:51:35;;;;;;;27.58;24.18;;;9.00;99.90;;;;;;1928458;72;21234;-75
2021/05/03 10:57:19;;;;;;;30.17;23.80;;;9.10;99.90;;;;;;1932297;72;21577;-76
2021/05/03 10:59:52;;;;;;;27.45;22.93;;;9.20;99.90;;;;;;1928971;74;21084;-77
2021/05/03 11:02:21;;;;;;;28.45;23.57;;;9.20;99.90;;;;;;1928951;72;21107;-79
2021/05/03 11:05:14;;;;;;;26.55;22.95;;;9.30;99.90;;;;;;1926381;72;21166;-76
2021/05/03 11:08:09;;;;;;;26.23;23.42;;;9.30;99.90;;;;;;1929808;72;21122;-76
2021/05/03 11:11:00;;;;;;;25.10;22.42;;;9.40;99.90;;;;;;1906716;74;21135;-75
2021/05/03 11:14:01;;;;;;;25.70;22.15;;;9.50;99.90;;;;;;1907675;75;21091;-80
2021/05/03 11:16:32;;;;;;;29.55;22.75;;;9.50;99.90;;;;;;1933614;73;21126;-78
2021/05/03 11:19:02;;;;;;;25.08;21.97;;;9.50;99.90;;;;;;1938695;73;21141;-75
2021/05/03 11:21:49;;;;;;;27.35;22.40;;;9.70;99.90;;;;;;1915031;73;21177;-76
2021/05/03 11:24:19;;;;;;;28.92;20.97;;;9.80;99.90;;;;;;1909908;74;21084;-76
2021/05/03 11:27:17;;;;;;;23.40;20.85;;;9.80;99.90;;;;;;1913296;73;21612;-76
2021/05/03 11:29:24;;;;;;;27.48;21.30;;;10.10;99.90;;;;;;1897062;73;21647;-76
2021/05/03 11:31:52;;;;;;;25.68;21.80;;;10.00;99.90;;;;;;1909460;73;21124;-76
2021/05/03 11:34:28;;;;;;;28.87;20.90;;;10.10;99.90;;;;;;1912951;73;21063;-75
2021/05/03 11:36:56;;;;;;;26.05;22.13;;;10.20;99.90;;;;;;1867057;75;21171;-79
2021/05/03 11:39:58;;;;;;;25.50;21.70;;;10.30;99.90;;;;;;1851435;76;21600;-76
2021/05/03 11:44:58;;;;;;;21.90;17.35;;;11.30;99.90;;;;;;1911741;73;21120;-76
2021/05/03 11:47:34;;;;;;;20.40;17.12;;;12.00;99.90;;;;;;1912175;73;21676;-77
2021/05/03 11:50:02;;;;;;;19.87;17.50;;;12.10;99.90;;;;;;1907539;73;21150;-77
2021/05/03 11:52:38;;;;;;;18.42;16.42;;;11.90;99.90;;;;;;1912403;73;22216;-77
2021/05/03 11:55:11;;;;;;;20.02;16.80;;;11.80;99.90;;;;;;1910131;73;21197;-77
2021/05/03 11:57:47;;;;;;;19.95;17.70;;;11.50;99.90;;;;;;1911812;73;21196;-75
2021/05/03 12:00:14;;;;;;;22.70;18.82;;;11.40;99.90;;;;;;1903203;73;21127;-78
2021/05/03 12:02:42;;;;;;;25.35;20.15;;;11.20;99.90;;;;;;1904422;73;21069;-78
2021/05/03 12:05:17;;;;;;;32.78;22.50;;;11.00;99.90;;;;;;1903348;74;21068;-78
2021/05/03 12:07:47;;;;;;;30.65;22.75;;;10.80;99.90;;;;;;1910773;73;21048;-79
2021/05/03 12:10:18;;;;;;;30.80;22.98;;;10.70;99.90;;;;;;1908004;73;21045;-78
2021/05/03 12:12:53;;;;;;;28.27;22.75;;;10.60;99.90;;;;;;1908073;73;21046;-78
2021/05/03 12:15:22;;;;;;;31.00;25.23;;;10.50;99.90;;;;;;1908529;73;21662;-79
2021/05/03 12:17:50;;;;;;;33.48;26.17;;;10.30;99.90;;;;;;1904497;73;21644;-78
2021/05/03 12:20:24;;;;;;;28.65;22.30;;;10.20;99.90;;;;;;1908209;73;21173;-77
2021/05/03 12:23:13;;;;;;;21.00;17.95;;;9.90;99.90;;;;;;1907204;73;21076;-78
2021/05/03 12:25:41;;;;;;;16.52;14.50;;;9.80;99.90;;;;;;1896157;74;21084;-77
2021/05/03 12:28:10;;;;;;;18.45;15.00;;;9.60;99.90;;;;;;1912927;73;21033;-76
2021/05/03 12:30:39;;;;;;;18.52;13.72;;;9.50;99.90;;;;;;1909303;73;21092;-77
2021/05/03 12:33:13;;;;;;;17.95;12.80;;;9.40;99.90;;;;;;1911210;73;21118;-77
2021/05/03 12:35:41;;;;;;;18.12;13.43;;;9.40;99.90;;;;;;1907325;73;21143;-75
2021/05/03 12:38:28;;;;;;;20.55;13.75;;;9.40;99.90;;;;;;1908653;73;21189;-75
2021/05/03 12:40:57;;;;;;;17.77;13.03;;;9.50;99.90;;;;;;1912059;73;21107;-75
2021/05/03 12:43:31;;;;;;;17.87;13.75;;;9.50;99.90;;;;;;1910617;73;21510;-76
2021/05/03 12:46:13;;;;;;;18.48;13.35;;;9.70;99.90;;;;;;1908924;73;21086;-75
2021/05/03 12:48:48;;;;;;;16.55;13.05;;;9.60;99.90;;;;;;1911087;73;21142;-76
2021/05/03 12:54:13;;;;;;;18.05;14.23;;;9.70;99.90;;;;;;1911018;74;21102;-76
2021/05/03 12:56:45;;;;;;;19.00;14.38;;;9.70;99.90;;;;;;1910957;73;21044;-76
2021/05/03 12:59:27;;;;;;;20.10;15.32;;;9.60;99.90;;;;;;1910448;73;21063;-76
2021/05/03 13:01:59;;;;;;;23.42;14.90;;;9.60;99.90;;;;;;1908808;73;21632;-76
2021/05/03 13:04:35;;;;;;;18.27;13.03;;;9.50;99.90;;;;;;1912905;73;21158;-77
2021/05/03 13:22:34;;;;;;;10.18;8.80;;;9.60;99.90;;;;;;1904902;74;21144;-73
2021/05/03 13:29:15;;;;;;;7.25;5.87;;;9.40;99.90;;;;;;1863763;74;21166;-73
2021/05/03 13:31:43;;;;;;;;;;;9.70;99.90;;;;;;1914017;73;21115;-76
2021/05/03 13:34:15;;;;;;;6.95;3.85;;;10.30;99.90;;;;;;1905101;74;20163;-77
2021/05/03 13:36:45;;;;;;;5.62;3.62;;;10.80;99.90;;;;;;1911844;74;21115;-77
2021/05/03 13:39:13;;;;;;;4.80;4.03;;;11.20;99.90;;;;;;1911004;73;21502;-76
2021/05/03 13:41:43;;;;;;;5.20;4.30;;;11.50;99.90;;;;;;1910167;74;21111;-77
2021/05/03 13:44:12;;;;;;;6.37;4.22;;;11.40;99.90;;;;;;1910709;74;21076;-77
2021/05/03 13:46:43;;;;;;;5.53;4.75;;;11.50;99.90;;;;;;1910957;73;21054;-75
2021/05/03 13:49:11;;;;;;;6.03;5.05;;;11.40;99.90;;;;;;1905083;73;21213;-73
2021/05/03 13:51:38;;;;;;;6.95;5.83;;;11.50;99.90;;;;;;1912977;73;21060;-76